Time;durP1;ratioP1;P1;durP2;ratioP2;P2;SDS_P1;SDS_P2;PMS_P1;PMS_P2;Temp;Humidity;BMP_temperature;BMP_pressure;BME280_temperature;BME280_humidity;BME280_pressure;Samples;Min_cycle;Max_cycle;Signal;HPM_P1;HPM_P2
2022/07/23 00:01:35;;;;;;;9.38;7.20;;;;;;;21.02;100.00;99040.16;5113115;28;20195;-78
2022/07/23 00:04:03;;;;;;;9.07;6.95;;;;;;;20.91;100.00;99040.50;5115107;27;20207;-79
2022/07/23 00:06:32;;;;;;;7.57;6.80;;;;;;;20.96;100.00;99037.31;5107941;28;20205;-79
2022/07/23 00:09:00;;;;;;;8.00;6.75;;;;;;;21.14;100.00;99055.00;5112122;28;20190;-79
2022/07/23 00:11:29;;;;;;;9.35;6.40;;;;;;;21.22;100.00;99072.16;5117601;27;20253;-79
2022/07/23 00:13:57;;;;;;;8.07;6.88;;;;;;;20.96;100.00;99086.63;5115703;28;20207;-79
2022/07/23 00:16:26;;;;;;;8.75;7.05;;;;;;;20.86;100.00;99092.19;5115394;28;20197;-79
2022/07/23 00:18:56;;;;;;;12.00;7.47;;;;;;;20.75;100.00;99089.81;5115003;28;20218;-79
2022/07/23 00:21:25;;;;;;;10.77;6.97;;;;;;;20.43;100.00;99087.84;5112461;28;20278;-78
2022/07/23 00:23:53;;;;;;;7.32;6.53;;;;;;;20.29;100.00;99077.69;5112498;28;20199;-79
2022/07/23 00:26:21;;;;;;;8.73;6.55;;;;;;;20.23;100.00;99094.44;5113556;28;20341;-79
2022/07/23 00:28:49;;;;;;;9.53;7.87;;;;;;;20.15;100.00;99092.56;5117236;28;20270;-78
2022/07/23 00:31:18;;;;;;;10.23;7.33;;;;;;;19.92;100.00;99070.78;5115339;28;20219;-78
2022/07/23 00:33:46;;;;;;;8.60;7.23;;;;;;;19.87;100.00;99077.63;5114642;28;20627;-79
2022/07/23 00:36:16;;;;;;;10.40;7.50;;;;;;;19.72;100.00;99080.91;5108945;28;20191;-79
2022/07/23 00:38:44;;;;;;;9.93;7.87;;;;;;;19.71;100.00;99056.88;5110518;28;20638;-78
2022/07/23 00:41:12;;;;;;;11.07;8.93;;;;;;;19.57;100.00;99050.22;5113202;28;20221;-78
2022/07/23 00:43:40;;;;;;;9.80;8.67;;;;;;;19.43;100.00;99048.94;5114869;28;20195;-78
2022/07/23 00:46:09;;;;;;;15.40;9.67;;;;;;;19.27;100.00;99051.50;5114901;28;20278;-79
2022/07/23 00:48:37;;;;;;;9.80;8.57;;;;;;;19.40;100.00;99051.94;5115977;27;20670;-79
2022/07/23 00:51:06;;;;;;;12.07;8.63;;;;;;;19.50;100.00;99051.84;5109101;28;20231;-78
2022/07/23 00:53:36;;;;;;;11.17;8.83;;;;;;;19.45;100.00;99046.94;5113361;28;20219;-79
2022/07/23 00:56:07;;;;;;;13.10;8.60;;;;;;;19.62;100.00;99042.53;5114518;28;20278;-78
2022/07/23 00:58:36;;;;;;;10.17;8.67;;;;;;;19.63;100.00;99059.50;5114077;28;20202;-79
2022/07/23 01:01:05;;;;;;;11.90;8.60;;;;;;;19.47;100.00;99056.69;5114422;28;20191;-79
2022/07/23 01:03:33;;;;;;;10.77;9.10;;;;;;;19.30;100.00;99047.66;5109154;28;20219;-78
2022/07/23 01:06:02;;;;;;;12.43;9.27;;;;;;;19.49;100.00;99050.13;5113983;28;20202;-79
2022/07/23 01:08:30;;;;;;;10.03;8.70;;;;;;;19.40;100.00;99045.75;5111573;28;20187;-79
2022/07/23 01:11:00;;;;;;;13.23;9.03;;;;;;;19.33;100.00;99048.19;5114306;27;20670;-79
2022/07/23 01:13:29;;;;;;;11.20;9.90;;;;;;;19.29;100.00;99041.44;5112337;28;20256;-79
2022/07/23 01:15:58;;;;;;;11.83;9.83;;;;;;;19.37;100.00;99036.13;5112512;27;20203;-79
2022/07/23 01:18:26;;;;;;;14.17;10.00;;;;;;;19.61;100.00;99032.81;5110072;28;20202;-79
2022/07/23 01:20:55;;;;;;;13.97;9.77;;;;;;;19.69;100.00;99021.25;5112076;28;20255;-79
2022/07/23 01:23:25;;;;;;;14.37;10.67;;;;;;;19.76;100.00;99013.38;5103396;28;20240;-79
2022/07/23 01:25:54;;;;;;;11.90;10.70;;;;;;;19.65;100.00;99017.19;5112971;28;20202;-79
2022/07/23 01:28:22;;;;;;;10.93;8.90;;;;;;;19.66;100.00;99016.19;5113550;28;20274;-79
2022/07/23 01:30:51;;;;;;;13.33;9.83;;;;;;;19.42;100.00;99020.41;5113833;28;20273;-79
2022/07/23 01:33:19;;;;;;;12.43;9.73;;;;;;;19.28;100.00;99028.16;5111505;28;20199;-79
2022/07/23 01:35:47;;;;;;;14.97;10.33;;;;;;;19.18;100.00;99020.22;5070698;28;20215;-79
2022/07/23 01:38:15;;;;;;;13.30;9.93;;;;;;;19.28;100.00;99020.09;5067172;28;20197;-79
2022/07/23 01:40:45;;;;;;;12.80;9.83;;;;;;;19.30;100.00;99027.03;5071120;28;20200;-79
2022/07/23 01:43:21;;;;;;;13.47;9.50;;;;;;;19.30;100.00;99027.03;5071792;28;20207;-79
2022/07/23 01:45:52;;;;;;;14.73;11.17;;;;;;;19.31;100.00;99036.78;5068734;28;20332;-79
2022/07/23 01:48:20;;;;;;;14.27;10.00;;;;;;;19.48;100.00;99042.25;5063654;28;20196;-79
2022/07/23 01:50:49;;;;;;;14.40;9.60;;;;;;;19.50;100.00;99035.72;5065374;28;20232;-79
2022/07/23 01:53:17;;;;;;;11.57;9.83;;;;;;;19.37;100.00;99038.81;5066706;28;20220;-79
2022/07/23 01:55:47;;;;;;;14.93;10.13;;;;;;;19.24;100.00;99029.50;5073246;28;20694;-79
2022/07/23 01:58:15;;;;;;;12.83;9.73;;;;;;;19.37;100.00;99028.06;5068293;28;20231;-79
2022/07/23 02:00:43;;;;;;;13.40;10.03;;;;;;;19.35;100.00;99022.00;5087171;28;20212;-79
2022/07/23 02:03:11;;;;;;;10.97;9.47;;;;;;;19.34;100.00;99017.66;5109642;28;20197;-79
2022/07/23 02:05:39;;;;;;;13.47;10.80;;;;;;;19.38;100.00;99023.53;5104294;28;20220;-79
2022/07/23 02:08:08;;;;;;;14.97;11.93;;;;;;;19.20;100.00;99018.19;5103652;28;20199;-79
2022/07/23 02:10:37;;;;;;;11.90;10.40;;;;;;;19.29;100.00;99008.34;5108947;28;20274;-79
2022/07/23 02:13:07;;;;;;;13.07;10.37;;;;;;;19.27;100.00;99030.00;5112927;28;20298;-79
2022/07/23 02:15:35;;;;;;;12.47;9.37;;;;;;;19.26;100.00;99038.22;5115656;27;20230;-79
2022/07/23 02:18:04;;;;;;;12.83;11.20;;;;;;;19.04;100.00;99042.25;5113327;28;20187;-79
2022/07/23 02:20:33;;;;;;;11.67;10.47;;;;;;;18.98;100.00;99049.06;5111937;28;20278;-79
2022/07/23 02:23:01;;;;;;;13.67;9.93;;;;;;;18.98;100.00;99053.59;5111826;28;20220;-79
2022/07/23 02:25:30;;;;;;;12.30;10.23;;;;;;;19.02;100.00;99047.78;5115233;28;20199;-79
2022/07/23 02:27:58;;;;;;;14.77;11.10;;;;;;;18.83;100.00;99053.31;5117295;28;20216;-79
2022/07/23 02:30:28;;;;;;;12.17;10.07;;;;;;;18.81;100.00;99061.50;5111784;28;20198;-79
2022/07/23 02:32:56;;;;;;;12.00;9.57;;;;;;;18.73;100.00;99052.53;5114334;28;20230;-79
2022/07/23 02:35:25;;;;;;;13.50;10.30;;;;;;;18.77;100.00;99064.66;5109927;28;20203;-79
2022/07/23 02:37:53;;;;;;;13.43;10.90;;;;;;;18.78;100.00;99061.81;5114210;28;20191;-79
2022/07/23 02:40:21;;;;;;;13.47;10.00;;;;;;;18.88;100.00;99073.31;5115749;28;20198;-79
2022/07/23 02:42:49;;;;;;;13.43;10.20;;;;;;;18.90;100.00;99083.03;5116782;28;20199;-79
2022/07/23 02:45:17;;;;;;;10.80;9.70;;;;;;;18.93;100.00;99085.44;5115733;28;20210;-79
2022/07/23 02:47:47;;;;;;;11.70;10.43;;;;;;;18.94;100.00;99085.28;5116622;28;20195;-79
2022/07/23 02:50:15;;;;;;;16.13;10.83;;;;;;;18.87;100.00;99094.94;5114925;28;20226;-79
2022/07/23 02:52:45;;;;;;;12.27;10.83;;;;;;;18.89;100.00;99092.94;5115141;27;20225;-79
2022/07/23 02:55:13;;;;;;;13.80;11.40;;;;;;;18.55;100.00;99095.41;5116525;28;20191;-79
2022/07/23 02:57:41;;;;;;;15.47;12.33;;;;;;;18.59;100.00;99100.31;5115433;28;20195;-79
2022/07/23 03:00:10;;;;;;;15.50;13.27;;;;;;;18.35;100.00;99089.31;5116760;28;20283;-79
2022/07/23 03:02:39;;;;;;;16.33;13.20;;;;;;;18.33;100.00;99085.06;5116495;28;20283;-79
2022/07/23 03:05:11;;;;;;;15.97;13.10;;;;;;;18.18;100.00;99082.06;5111502;28;20203;-79
2022/07/23 03:07:39;;;;;;;15.83;12.67;;;;;;;18.35;100.00;99099.19;5115361;28;20270;-79
2022/07/23 03:10:08;;;;;;;15.57;12.30;;;;;;;18.37;100.00;99103.41;5101949;28;20195;-79
2022/07/23 03:12:36;;;;;;;16.07;12.60;;;;;;;18.38;100.00;99106.94;5116488;28;20222;-79
2022/07/23 03:15:05;;;;;;;16.87;12.50;;;;;;;18.25;100.00;99108.13;5114665;28;20195;-79
2022/07/23 03:17:34;;;;;;;14.37;12.70;;;;;;;18.19;100.00;99121.28;5113401;28;20198;-79
2022/07/23 03:20:02;;;;;;;16.23;12.97;;;;;;;18.17;100.00;99116.06;5118765;27;20207;-79
2022/07/23 03:22:31;;;;;;;18.73;12.90;;;;;;;18.21;100.00;99133.53;5116490;28;20210;-79
2022/07/23 03:25:00;;;;;;;15.93;12.20;;;;;;;18.52;100.00;99130.56;5118102;27;20203;-79
2022/07/23 03:27:29;;;;;;;14.93;11.93;;;;;;;18.52;100.00;99117.16;5115590;28;20205;-79
2022/07/23 03:29:59;;;;;;;15.53;12.07;;;;;;;18.47;100.00;99125.66;5116272;28;20278;-79
2022/07/23 03:32:27;;;;;;;15.53;12.27;;;;;;;18.38;100.00;99117.66;5116120;28;20226;-79
2022/07/23 03:34:55;;;;;;;14.20;11.70;;;;;;;18.19;100.00;99110.56;5114344;27;20232;-79
2022/07/23 03:37:24;;;;;;;17.47;12.97;;;;;;;18.23;100.00;99107.41;5113887;28;20191;-79
2022/07/23 03:39:54;;;;;;;15.53;13.00;;;;;;;18.16;100.00;99100.97;5114224;28;20290;-79
2022/07/23 03:42:22;;;;;;;15.77;12.27;;;;;;;18.49;100.00;99104.03;5118014;27;20199;-79
2022/07/23 03:44:52;;;;;;;15.67;12.37;;;;;;;18.47;100.00;99106.03;5115411;28;20210;-79
2022/07/23 03:47:21;;;;;;;16.23;12.20;;;;;;;18.74;100.00;99111.41;5110505;28;20191;-79
2022/07/23 03:49:50;;;;;;;15.47;12.10;;;;;;;18.69;100.00;99112.84;5115227;28;20206;-79
2022/07/23 03:52:18;;;;;;;16.73;11.93;;;;;;;18.63;100.00;99118.81;5117915;27;20202;-79
2022/07/23 03:54:47;;;;;;;13.47;11.33;;;;;;;18.72;100.00;99115.22;5113829;28;20658;-79
2022/07/23 03:57:16;;;;;;;14.03;11.20;;;;;;;18.80;100.00;99129.59;5115734;28;20203;-79
2022/07/23 03:59:45;;;;;;;13.70;11.23;;;;;;;18.92;100.00;99137.44;5105391;28;20206;-79
2022/07/23 04:02:13;;;;;;;16.57;11.53;;;;;;;18.83;100.00;99126.63;5117833;27;20206;-79
2022/07/23 04:04:41;;;;;;;17.00;11.97;;;;;;;18.99;100.00;99125.09;5115327;28;20191;-79
2022/07/23 04:07:11;;;;;;;14.20;11.70;;;;;;;18.79;100.00;99130.59;5115316;28;20209;-79
2022/07/23 04:09:40;;;;;;;16.77;11.43;;;;;;;18.83;100.00;99134.66;5114079;28;20199;-79
2022/07/23 04:12:13;;;;;;;17.00;11.27;;;;;;;18.82;100.00;99132.97;5112263;28;20199;-79
2022/07/23 04:14:42;;;;;;;15.93;11.10;;;;;;;18.96;100.00;99134.28;5109287;28;20210;-79
2022/07/23 04:17:11;;;;;;;12.80;10.33;;;;;;;18.95;100.00;99143.34;5110481;28;20199;-79
2022/07/23 04:19:41;;;;;;;13.37;11.13;;;;;;;18.38;100.00;99131.91;5112703;28;20198;-79
2022/07/23 04:22:10;;;;;;;13.43;10.43;;;;;;;18.51;100.00;99140.44;5112187;28;20225;-79
2022/07/23 04:24:38;;;;;;;13.40;10.97;;;;;;;18.48;100.00;99132.72;5115440;27;20277;-79
2022/07/23 04:27:06;;;;;;;14.20;11.43;;;;;;;18.48;100.00;99127.34;5115086;28;20198;-79
2022/07/23 04:29:35;;;;;;;14.20;10.37;;;;;;;18.74;100.00;99132.03;5112705;28;20202;-79
2022/07/23 04:32:05;;;;;;;13.93;11.40;;;;;;;18.56;100.00;99129.28;5114840;28;20198;-79
2022/07/23 04:34:33;;;;;;;15.17;12.07;;;;;;;18.65;100.00;99125.75;5114787;28;20219;-79
2022/07/23 04:37:02;;;;;;;14.70;11.30;;;;;;;18.67;100.00;99134.47;5114384;28;20195;-79
2022/07/23 04:39:30;;;;;;;14.07;11.37;;;;;;;18.62;100.00;99131.34;5111479;28;20290;-79
2022/07/23 04:41:59;;;;;;;17.37;11.93;;;;;;;18.41;100.00;99133.44;5109471;28;20270;-79
2022/07/23 04:44:27;;;;;;;13.93;10.80;;;;;;;18.52;100.00;99138.59;5114550;28;20202;-79
2022/07/23 04:46:55;;;;;;;16.63;11.73;;;;;;;18.54;100.00;99142.84;5109553;28;20649;-79
2022/07/23 04:49:25;;;;;;;18.00;12.43;;;;;;;18.29;100.00;99139.00;5110781;28;20207;-79
2022/07/23 04:51:53;;;;;;;15.80;12.07;;;;;;;18.49;100.00;99130.88;5112117;28;20242;-79
2022/07/23 04:54:21;;;;;;;14.50;12.10;;;;;;;18.63;100.00;99132.22;5110165;28;20219;-79
2022/07/23 04:56:49;;;;;;;16.93;12.00;;;;;;;18.59;100.00;99132.50;5114563;28;20367;-79
2022/07/23 04:59:18;;;;;;;15.43;11.77;;;;;;;18.59;100.00;99131.66;5114308;28;20217;-79
2022/07/23 05:01:46;;;;;;;14.57;11.63;;;;;;;18.61;100.00;99121.63;5116726;27;20198;-79
2022/07/23 05:04:14;;;;;;;14.40;12.40;;;;;;;18.55;100.00;99120.41;5106964;28;20590;-79
2022/07/23 05:06:44;;;;;;;14.37;11.93;;;;;;;18.74;100.00;99115.94;5114095;28;20197;-79
2022/07/23 05:09:14;;;;;;;14.83;12.63;;;;;;;18.63;100.00;99108.91;5115031;27;20194;-79
2022/07/23 05:11:43;;;;;;;14.60;12.07;;;;;;;18.73;100.00;99117.78;5048898;28;20201;-79
2022/07/23 05:14:12;;;;;;;15.63;12.73;;;;;;;18.76;100.00;99125.53;5046991;28;20302;-79
2022/07/23 05:16:40;;;;;;;15.27;11.13;;;;;;;18.67;100.00;99128.28;5046288;28;20204;-80
2022/07/23 05:19:09;;;;;;;16.43;13.03;;;;;;;18.71;100.00;99135.00;5001749;28;20200;-79
2022/07/23 05:21:37;;;;;;;18.53;11.60;;;;;;;19.05;100.00;99144.13;5045422;28;20191;-79
2022/07/23 05:24:07;;;;;;;14.40;11.70;;;;;;;19.08;100.00;99140.28;5040845;28;20197;-79
2022/07/23 05:26:36;;;;;;;16.37;11.63;;;;;;;19.02;100.00;99138.22;5050619;28;20204;-79
2022/07/23 05:29:04;;;;;;;14.27;11.30;;;;;;;18.99;100.00;99139.34;5058630;28;20201;-79
2022/07/23 05:31:33;;;;;;;11.63;10.33;;;;;;;19.26;100.00;99137.59;5109165;28;20222;-79
2022/07/23 05:34:02;;;;;;;14.20;11.07;;;;;;;19.48;100.00;99130.91;5110874;28;20207;-79
2022/07/23 05:36:31;;;;;;;13.77;10.60;;;;;;;19.36;100.00;99117.72;5113382;28;20202;-79
2022/07/23 05:39:00;;;;;;;14.43;10.37;;;;;;;19.16;100.00;99111.66;5109565;28;20203;-79
2022/07/23 05:41:30;;;;;;;12.13;9.80;;;;;;;19.36;100.00;99117.72;5109080;28;20190;-79
2022/07/23 05:43:59;;;;;;;11.60;9.27;;;;;;;19.55;100.00;99111.31;5108116;28;20198;-79
2022/07/23 05:46:27;;;;;;;59.63;40.83;;;;;;;19.87;100.00;99115.25;5115831;27;20642;-80
2022/07/23 05:48:55;;;;;;;11.53;7.90;;;;;;;19.75;100.00;99111.16;5109682;28;20194;-79
2022/07/23 05:51:24;;;;;;;11.73;7.90;;;;;;;19.60;100.00;99111.72;5113074;28;20701;-79
2022/07/23 05:53:53;;;;;;;9.47;7.27;;;;;;;19.60;100.00;99116.25;5112052;28;20283;-79
2022/07/23 05:56:21;;;;;;;12.33;8.23;;;;;;;19.42;100.00;99113.56;5115039;27;20191;-79
2022/07/23 05:58:51;;;;;;;10.53;7.40;;;;;;;19.54;100.00;99115.00;5110304;28;20199;-79
2022/07/23 06:01:19;;;;;;;10.07;7.50;;;;;;;19.55;100.00;99110.47;5113517;28;20382;-79
2022/07/23 06:03:48;;;;;;;8.77;7.17;;;;;;;19.80;100.00;99119.59;5108607;28;20219;-79
2022/07/23 06:06:16;;;;;;;8.23;7.30;;;;;;;19.77;100.00;99120.72;5110911;28;20225;-80
2022/07/23 06:08:45;;;;;;;10.63;6.50;;;;;;;20.03;100.00;99107.28;5109259;28;20614;-80
2022/07/23 06:11:13;;;;;;;9.40;6.80;;;;;;;19.98;100.00;99112.31;5109550;28;20191;-80
2022/07/23 06:13:41;;;;;;;12.27;7.10;;;;;;;20.10;100.00;99119.09;5106245;28;20198;-79
2022/07/23 06:16:11;;;;;;;8.83;6.17;;;;;;;20.27;100.00;99115.50;5109355;28;20195;-79
2022/07/23 06:18:41;;;;;;;10.83;6.00;;;;;;;20.22;100.00;99114.28;5110278;28;20246;-80
2022/07/23 06:21:09;;;;;;;10.17;5.80;;;;;;;20.31;100.00;99118.69;5108954;28;20202;-79
2022/07/23 06:23:57;;;;;;;8.70;6.47;;;;;;;20.17;100.00;99117.47;5112087;28;20244;-79
2022/07/23 06:26:25;;;;;;;8.13;5.87;;;;;;;20.41;100.00;99113.19;5113126;28;20186;-79
2022/07/23 06:28:54;;;;;;;7.77;5.90;;;;;;;20.63;100.00;99118.00;5112842;28;20187;-80
2022/07/23 06:31:23;;;;;;;9.03;5.67;;;;;;;20.73;100.00;99113.31;5090488;28;20251;-79
2022/07/23 06:33:52;;;;;;;8.03;5.20;;;;;;;20.89;100.00;99117.94;5080830;28;20201;-80
2022/07/23 06:36:20;;;;;;;10.80;5.60;;;;;;;21.11;100.00;99125.38;5083313;28;20196;-80
2022/07/23 06:38:49;;;;;;;7.85;4.97;;;;;;;21.13;100.00;99126.06;5086558;28;20234;-79
2022/07/23 06:41:20;;;;;;;6.93;5.30;;;;;;;20.89;100.00;99133.25;5085566;28;20188;-79
2022/07/23 06:43:48;;;;;;;6.30;4.78;;;;;;;21.34;100.00;99130.16;5090558;28;20285;-79
2022/07/23 06:46:16;;;;;;;5.33;4.80;;;;;;;21.42;100.00;99138.22;5087767;28;20650;-79
2022/07/23 06:48:46;;;;;;;5.40;4.23;;;;;;;21.27;100.00;99137.22;5085345;28;20188;-79
2022/07/23 06:51:14;;;;;;;5.95;4.35;;;;;;;21.22;100.00;99147.59;5090148;28;20216;-79
2022/07/23 06:53:42;;;;;;;6.97;4.47;;;;;;;21.14;100.00;99151.16;5084711;28;20203;-79
2022/07/23 06:56:11;;;;;;;7.43;5.00;;;;;;;21.28;100.00;99150.50;5099203;28;20226;-79
2022/07/23 06:58:39;;;;;;;4.83;4.20;;;;;;;21.30;100.00;99161.13;5115415;27;20203;-79
2022/07/23 07:01:08;;;;;;;6.07;4.53;;;;;;;21.28;100.00;99153.22;5105140;28;20237;-79
2022/07/23 07:03:36;;;;;;;6.72;4.80;;;;;;;21.33;100.00;99163.50;5108226;28;20195;-79
2022/07/23 07:06:07;;;;;;;8.00;4.45;;;;;;;21.56;100.00;99172.59;5109584;28;20195;-79
2022/07/23 07:08:35;;;;;;;5.15;4.65;;;;;;;21.56;100.00;99174.47;5113830;27;20211;-79
2022/07/23 07:11:04;;;;;;;8.32;4.55;;;;;;;21.64;100.00;99169.91;5114474;28;20199;-79
2022/07/23 07:13:32;;;;;;;7.68;4.68;;;;;;;21.81;100.00;99159.97;5116132;28;20187;-80
2022/07/23 07:16:00;;;;;;;5.03;4.53;;;;;;;21.94;100.00;99168.38;5114156;28;20278;-79
2022/07/23 07:18:29;;;;;;;8.70;4.57;;;;;;;21.94;100.00;99176.47;5116032;28;20199;-79
2022/07/23 07:20:58;;;;;;;6.75;4.40;;;;;;;21.91;100.00;99181.38;5116060;28;20206;-80
2022/07/23 07:23:28;;;;;;;5.88;4.85;;;;;;;;;;5114868;27;20244;-79
2022/07/23 07:25:56;;;;;;;7.03;5.00;;;;;;;22.04;100.00;99170.88;5116501;28;20186;-79
2022/07/23 07:28:24;;;;;;;5.20;4.50;;;;;;;22.09;100.00;99179.31;5111348;28;20195;-79
2022/07/23 07:30:52;;;;;;;5.43;4.50;;;;;;;21.88;100.00;99187.91;5116413;28;20246;-79
2022/07/23 07:33:21;;;;;;;6.32;4.75;;;;;;;22.11;100.00;99188.13;5116166;28;20232;-79
2022/07/23 07:35:49;;;;;;;5.30;4.25;;;;;;;22.08;100.00;99196.53;5113017;28;20210;-80
2022/07/23 07:38:18;;;;;;;8.25;5.47;;;;;;;21.63;100.00;99197.88;5113325;28;20195;-80
2022/07/23 07:40:47;;;;;;;8.77;5.70;;;;;;;21.99;100.00;99203.75;5113736;28;20195;-80
2022/07/23 07:43:17;;;;;;;8.45;5.53;;;;;;;22.15;100.00;99200.25;5116171;28;20187;-79
2022/07/23 07:45:45;;;;;;;6.80;5.15;;;;;;;22.29;100.00;99206.78;5115572;27;20199;-80
2022/07/23 07:48:14;;;;;;;6.18;4.72;;;;;;;22.44;100.00;99202.38;5116607;27;20210;-79
2022/07/23 07:50:42;;;;;;;6.22;4.82;;;;;;;22.42;100.00;99207.09;5110338;28;20235;-79
2022/07/23 07:53:10;;;;;;;6.22;4.68;;;;;;;22.49;100.00;99205.41;5112455;28;20274;-79
2022/07/23 07:55:39;;;;;;;6.03;4.60;;;;;;;22.56;100.00;99205.53;5113555;28;20238;-79
2022/07/23 07:58:08;;;;;;;5.25;4.28;;;;;;;22.42;100.00;99207.09;5115161;27;20249;-79
2022/07/23 08:00:37;;;;;;;5.88;4.18;;;;;;;22.63;100.00;99208.38;5115472;28;20195;-79
2022/07/23 08:03:05;;;;;;;5.97;4.05;;;;;;;22.64;100.00;99210.91;5115090;28;20202;-79
2022/07/23 08:05:34;;;;;;;6.45;4.40;;;;;;;22.60;100.00;99208.75;5113392;28;20191;-79
2022/07/23 08:08:02;;;;;;;6.50;3.72;;;;;;;22.77;100.00;99202.25;5114133;28;20279;-79
2022/07/23 08:10:31;;;;;;;4.68;3.78;;;;;;;23.03;100.00;99213.66;5110426;28;20206;-80
2022/07/23 08:13:00;;;;;;;5.43;3.22;;;;;;;22.92;100.00;99208.63;5114898;28;20270;-79
2022/07/23 08:15:31;;;;;;;4.78;4.13;;;;;;;22.81;100.00;99209.84;5117071;27;20233;-79
2022/07/23 08:18:00;;;;;;;4.15;3.47;;;;;;;23.17;100.00;99211.22;5115215;28;20195;-79
2022/07/23 08:20:29;;;;;;;5.60;3.83;;;;;;;23.22;100.00;99208.81;5114786;28;20187;-79
2022/07/23 08:22:59;;;;;;;6.65;4.00;;;;;;;23.37;100.00;99215.16;5113469;28;20270;-79
2022/07/23 08:25:30;;;;;;;5.00;3.90;;;;;;;23.41;100.00;99217.31;5111284;28;20198;-79
2022/07/23 08:27:59;;;;;;;6.28;4.20;;;;;;;23.43;100.00;99215.25;5114794;28;20194;-79
2022/07/23 08:30:28;;;;;;;7.00;4.25;;;;;;;23.50;100.00;99215.41;5114609;28;20262;-79
2022/07/23 08:33:00;;;;;;;8.18;4.40;;;;;;;23.69;100.00;99219.53;5116373;27;20202;-79
2022/07/23 08:35:30;;;;;;;5.55;4.22;;;;;;;23.88;100.00;99227.16;5114683;28;20222;-79
2022/07/23 08:38:00;;;;;;;7.20;4.85;;;;;;;23.24;100.00;99226.53;5113501;28;20202;-79
2022/07/23 08:40:31;;;;;;;5.60;4.43;;;;;;;23.72;100.00;99229.13;5113223;28;20619;-80
2022/07/23 08:43:00;;;;;;;6.20;4.18;;;;;;;23.81;100.00;99228.03;5111586;28;20192;-80
2022/07/23 08:45:29;;;;;;;7.68;4.15;;;;;;;23.90;100.00;99226.97;5111834;28;20195;-79
2022/07/23 08:47:59;;;;;;;5.22;4.57;;;;;;;23.34;100.00;99235.25;5112174;28;20199;-79
2022/07/23 08:50:30;;;;;;;6.68;4.43;;;;;;;23.76;100.00;99236.72;5114435;28;20226;-79
2022/07/23 08:53:00;;;;;;;5.65;4.50;;;;;;;24.01;100.00;99239.22;5112831;28;20195;-79
2022/07/23 08:55:28;;;;;;;5.53;4.35;;;;;;;23.95;100.00;99244.34;5114285;28;20242;-80
2022/07/23 08:57:57;;;;;;;5.18;4.43;;;;;;;23.96;100.00;99237.06;5116726;27;20189;-79
2022/07/23 09:00:26;;;;;;;5.07;4.43;;;;;;;24.13;100.00;99237.78;5113223;27;20221;-80
2022/07/23 09:02:54;;;;;;;4.75;4.28;;;;;;;23.83;100.00;99239.53;5114092;28;20213;-79
2022/07/23 09:05:28;;;;;;;10.40;4.32;;;;;;;24.21;100.00;99241.22;5109231;28;20253;-79
2022/07/23 09:08:09;;;;;;;7.10;5.18;;;;;;;23.76;100.00;99239.44;5113091;28;20259;-79
2022/07/23 09:10:46;;;;;;;5.35;4.70;;;;;;;23.95;100.00;99232.69;5114220;28;20226;-78
2022/07/23 09:13:34;;;;;;;5.30;4.65;;;;;;;24.27;100.00;99237.78;5111725;28;20195;-79
2022/07/23 09:16:05;;;;;;;5.10;4.60;;;;;;;24.13;100.00;99238.63;5113532;28;20769;-79
2022/07/23 09:18:37;;;;;;;7.03;4.43;;;;;;;24.24;100.00;99235.47;5114046;28;20209;-78
2022/07/23 09:21:16;;;;;;;6.00;4.38;;;;;;;24.82;100.00;99228.44;5110008;28;20207;-79
2022/07/23 09:23:47;;;;;;;5.70;3.75;;;;;;;25.08;96.76;99229.81;5112348;28;20228;-79
2022/07/23 09:26:23;;;;;;;4.82;4.10;;;;;;;24.86;96.13;99231.59;5115213;27;20238;-78
2022/07/23 09:28:57;;;;;;;5.20;4.20;;;;;;;25.36;96.86;99233.50;5113776;28;20222;-79
2022/07/23 09:31:31;;;;;;;6.60;4.55;;;;;;;24.58;99.17;99236.81;5111735;28;20616;-79
2022/07/23 09:34:19;;;;;;;5.15;4.40;;;;;;;24.77;99.41;99241.69;5113412;28;20194;-79
2022/07/23 09:36:54;;;;;;;7.07;4.70;;;;;;;24.72;100.00;99244.13;5113640;28;20222;-79
2022/07/23 09:39:28;;;;;;;6.43;4.40;;;;;;;25.34;98.10;99242.84;5112542;28;20202;-79
2022/07/23 09:41:57;;;;;;;5.55;4.90;;;;;;;25.44;97.84;99237.13;5113691;28;20198;-79
2022/07/23 09:44:26;;;;;;;6.63;4.72;;;;;;;25.87;95.66;99233.44;5109851;28;20194;-79
2022/07/23 09:47:00;;;;;;;4.88;4.47;;;;;;;25.78;92.52;99239.19;5117476;27;20191;-78
2022/07/23 09:49:29;;;;;;;4.75;4.35;;;;;;;25.56;93.26;99246.44;5108734;28;20198;-79
2022/07/23 09:52:02;;;;;;;6.32;4.93;;;;;;;25.27;92.60;99239.22;5111065;28;20234;-78
2022/07/23 09:54:35;;;;;;;4.47;4.05;;;;;;;25.85;89.53;99240.06;5072429;28;20195;-78
2022/07/23 09:57:14;;;;;;;7.35;4.88;;;;;;;26.12;90.79;99239.28;5111809;28;20226;-79
2022/07/23 09:59:46;;;;;;;5.60;5.00;;;;;;;25.11;95.17;99234.88;5112524;28;20203;-79
2022/07/23 10:02:15;;;;;;;5.97;4.55;;;;;;;25.51;97.40;99243.47;5113790;28;20195;-78
2022/07/23 10:04:44;;;;;;;5.85;4.65;;;;;;;26.20;90.90;99241.84;5112975;28;20197;-78
2022/07/23 10:07:18;;;;;;;6.28;4.10;;;;;;;26.30;84.59;99236.09;5113379;28;20202;-79
2022/07/23 10:09:48;;;;;;;5.22;3.88;;;;;;;26.50;84.71;99239.81;5046989;28;20346;-79
2022/07/23 10:15:08;;;;;;;5.97;4.30;;;;;;;26.70;81.24;99239.94;4996631;28;20203;-79
2022/07/23 10:17:36;;;;;;;5.25;4.72;;;;;;;26.65;84.02;99230.72;5041041;28;20714;-79
2022/07/23 10:20:07;;;;;;;6.10;4.95;;;;;;;26.32;86.79;99234.00;5044707;28;20193;-79
2022/07/23 10:22:41;;;;;;;6.03;4.78;;;;;;;26.84;83.87;99223.72;5040995;28;20224;-79
2022/07/23 10:25:19;;;;;;;5.55;4.45;;;;;;;27.32;81.09;99230.03;5045992;28;20302;-79
2022/07/23 10:28:19;;;;;;;6.45;4.45;;;;;;;27.43;84.01;99225.88;5074989;28;20236;-79
2022/07/23 10:31:01;;;;;;;6.03;5.38;;;;;;;27.10;86.12;99219.25;5110179;28;20199;-79
2022/07/23 10:33:40;;;;;;;5.47;4.65;;;;;;;27.67;82.30;99228.88;5105978;28;20214;-79
2022/07/23 10:36:13;;;;;;;6.03;4.80;;;;;;;27.73;78.90;99229.94;5110983;28;20229;-79
2022/07/23 10:38:52;;;;;;;5.13;4.57;;;;;;;27.76;81.32;99224.06;5110412;28;20194;-79
2022/07/23 10:41:33;;;;;;;5.43;4.43;;;;;;;27.95;81.23;99211.53;5109722;28;20191;-79
2022/07/23 10:44:12;;;;;;;6.55;4.88;;;;;;;27.51;82.76;99212.91;5113655;28;20216;-79
2022/07/23 10:49:44;;;;;;;8.35;4.95;;;;;;;28.03;78.70;99224.94;5116797;28;20206;-79
2022/07/23 10:52:25;;;;;;;5.63;4.65;;;;;;;27.36;81.59;99217.69;5113280;28;20203;-79
2022/07/23 10:54:57;;;;;;;4.90;4.50;;;;;;;27.73;80.68;99224.50;5118023;27;20205;-79
2022/07/23 10:57:27;;;;;;;6.63;5.00;;;;;;;27.59;81.68;99209.97;5117028;28;20298;-79
2022/07/23 11:00:14;;;;;;;6.70;4.72;;;;;;;28.11;75.34;99207.56;5117056;28;20195;-79
2022/07/23 11:02:45;;;;;;;7.72;5.60;;;;;;;28.28;77.45;99211.56;5110178;28;20198;-79
2022/07/23 11:05:15;;;;;;;7.55;5.32;;;;;;;28.22;77.51;99212.38;5079110;28;20198;-79
2022/07/23 11:08:19;;;;;;;8.60;5.20;;;;;;;28.07;75.00;99207.13;5114067;28;20322;-79
2022/07/23 11:10:54;;;;;;;5.88;5.28;;;;;;;28.76;71.85;99208.53;5113891;28;20198;-79
2022/07/23 11:13:42;;;;;;;5.88;5.38;;;;;;;28.96;73.14;99206.59;5113114;28;20277;-79
2022/07/23 11:16:22;;;;;;;6.03;5.07;;;;;;;29.26;71.59;99195.97;5116257;28;20201;-79
2022/07/23 11:19:08;;;;;;;5.28;4.78;;;;;;;29.43;69.65;99196.28;5116229;28;20213;-79
2022/07/23 11:21:52;;;;;;;6.40;5.55;;;;;;;29.70;68.68;99196.13;5116193;28;20214;-79
2022/07/23 11:24:22;;;;;;;7.90;7.10;;;;;;;29.75;67.87;99194.44;5117455;27;20195;-79
2022/07/23 11:27:04;;;;;;;6.25;5.10;;;;;;;29.76;63.53;99187.91;5116011;28;20240;-79
2022/07/23 11:29:40;;;;;;;9.20;6.05;;;;;;;28.14;73.57;99193.50;5115974;28;20278;-79
2022/07/23 11:32:42;;;;;;;8.73;6.32;;;;;;;28.02;77.62;99198.75;5110233;28;20202;-79
2022/07/23 11:35:27;;;;;;;5.82;5.25;;;;;;;28.07;73.71;99196.22;5039695;28;20235;-78
2022/07/23 11:38:05;;;;;;;5.65;5.05;;;;;;;28.29;73.16;99196.06;5071728;28;20386;-79
2022/07/23 11:40:34;;;;;;;19.42;16.83;;;;;;;28.94;69.91;99200.50;5067260;28;20228;-79